sensor_id;sensor_type;location;lat;lon;timestamp;temperature;humidity
17619;DHT22;8928;51.678;6.074;2024-01-11T00:01:45;-6.70;1.00
17619;DHT22;8928;51.678;6.074;2024-01-11T00:04:32;-6.70;1.00
17619;DHT22;8928;51.678;6.074;2024-01-11T00:07:19;-6.70;1.00
17619;DHT22;8928;51.678;6.074;2024-01-11T00:10:06;-6.70;1.00
17619;DHT22;8928;51.678;6.074;2024-01-11T00:12:53;-6.50;1.00
17619;DHT22;8928;51.678;6.074;2024-01-11T00:15:42;-6.50;1.00
17619;DHT22;8928;51.678;6.074;2024-01-11T00:18:29;-6.40;1.00
17619;DHT22;8928;51.678;6.074;2024-01-11T00:21:16;-6.40;1.00
17619;DHT22;8928;51.678;6.074;2024-01-11T00:24:03;-6.40;1.00
17619;DHT22;8928;51.678;6.074;2024-01-11T00:26:50;-6.40;1.00
17619;DHT22;8928;51.678;6.074;2024-01-11T00:29:37;-6.40;1.00
17619;DHT22;8928;51.678;6.074;2024-01-11T00:32:25;-6.50;1.00
17619;DHT22;8928;51.678;6.074;2024-01-11T00:35:13;-6.50;1.00
17619;DHT22;8928;51.678;6.074;2024-01-11T00:38:00;-6.60;1.00
17619;DHT22;8928;51.678;6.074;2024-01-11T00:40:47;-6.60;1.00
17619;DHT22;8928;51.678;6.074;2024-01-11T00:43:34;-6.60;1.00
17619;DHT22;8928;51.678;6.074;2024-01-11T00:46:21;-6.70;1.00
17619;DHT22;8928;51.678;6.074;2024-01-11T00:49:10;-6.80;1.00
17619;DHT22;8928;51.678;6.074;2024-01-11T00:51:57;-6.80;1.00
17619;DHT22;8928;51.678;6.074;2024-01-11T00:54:44;-6.80;1.00
17619;DHT22;8928;51.678;6.074;2024-01-11T00:57:31;-6.80;1.00
17619;DHT22;8928;51.678;6.074;2024-01-11T01:00:18;-6.80;1.00
17619;DHT22;8928;51.678;6.074;2024-01-11T01:03:05;-6.80;1.00
17619;DHT22;8928;51.678;6.074;2024-01-11T01:05:54;-6.70;1.00
17619;DHT22;8928;51.678;6.074;2024-01-11T01:08:41;-6.80;1.00
17619;DHT22;8928;51.678;6.074;2024-01-11T01:11:28;-6.80;1.00
17619;DHT22;8928;51.678;6.074;2024-01-11T01:14:15;-6.80;1.00
17619;DHT22;8928;51.678;6.074;2024-01-11T01:17:02;-6.70;1.00
17619;DHT22;8928;51.678;6.074;2024-01-11T01:19:49;-6.80;1.00
17619;DHT22;8928;51.678;6.074;2024-01-11T01:22:37;-6.80;1.00
17619;DHT22;8928;51.678;6.074;2024-01-11T01:25:24;-6.80;1.00
17619;DHT22;8928;51.678;6.074;2024-01-11T01:28:11;-6.80;1.00
17619;DHT22;8928;51.678;6.074;2024-01-11T01:30:58;-6.60;1.00
17619;DHT22;8928;51.678;6.074;2024-01-11T01:33:45;-6.60;1.00
17619;DHT22;8928;51.678;6.074;2024-01-11T01:36:32;-6.50;1.00
17619;DHT22;8928;51.678;6.074;2024-01-11T01:39:21;-6.40;1.00
17619;DHT22;8928;51.678;6.074;2024-01-11T01:42:08;-6.50;1.00
17619;DHT22;8928;51.678;6.074;2024-01-11T01:44:55;-6.40;1.00
17619;DHT22;8928;51.678;6.074;2024-01-11T01:47:43;-6.50;1.00
17619;DHT22;8928;51.678;6.074;2024-01-11T01:50:31;-6.50;1.00
17619;DHT22;8928;51.678;6.074;2024-01-11T01:53:18;-6.60;1.00
17619;DHT22;8928;51.678;6.074;2024-01-11T01:56:08;-6.70;1.00
17619;DHT22;8928;51.678;6.074;2024-01-11T01:58:55;-6.70;1.00
17619;DHT22;8928;51.678;6.074;2024-01-11T02:01:43;-6.70;1.00
17619;DHT22;8928;51.678;6.074;2024-01-11T02:04:30;-6.70;1.00
17619;DHT22;8928;51.678;6.074;2024-01-11T02:07:18;-6.80;1.00
17619;DHT22;8928;51.678;6.074;2024-01-11T02:10:07;-6.80;1.00
17619;DHT22;8928;51.678;6.074;2024-01-11T02:12:56;-6.90;1.00
17619;DHT22;8928;51.678;6.074;2024-01-11T02:15:44;-6.90;1.00
17619;DHT22;8928;51.678;6.074;2024-01-11T02:18:31;-7.00;1.00
17619;DHT22;8928;51.678;6.074;2024-01-11T02:21:18;-7.10;1.00
17619;DHT22;8928;51.678;6.074;2024-01-11T02:24:08;-7.10;1.00
17619;DHT22;8928;51.678;6.074;2024-01-11T02:26:57;-7.20;1.00
17619;DHT22;8928;51.678;6.074;2024-01-11T02:29:45;-7.20;1.00
17619;DHT22;8928;51.678;6.074;2024-01-11T02:32:32;-7.30;1.00
17619;DHT22;8928;51.678;6.074;2024-01-11T02:35:19;-7.20;1.00
17619;DHT22;8928;51.678;6.074;2024-01-11T02:38:07;-7.20;1.00
17619;DHT22;8928;51.678;6.074;2024-01-11T02:40:55;-7.20;1.00
17619;DHT22;8928;51.678;6.074;2024-01-11T02:43:46;-7.20;1.00
17619;DHT22;8928;51.678;6.074;2024-01-11T02:46:34;-7.20;1.00
17619;DHT22;8928;51.678;6.074;2024-01-11T02:49:21;-7.30;1.00
17619;DHT22;8928;51.678;6.074;2024-01-11T02:52:08;-7.30;1.00
17619;DHT22;8928;51.678;6.074;2024-01-11T02:54:55;-7.30;1.00
17619;DHT22;8928;51.678;6.074;2024-01-11T02:57:43;-7.10;1.00
17619;DHT22;8928;51.678;6.074;2024-01-11T03:00:30;-7.10;1.00
17619;DHT22;8928;51.678;6.074;2024-01-11T03:03:17;-7.10;1.00
17619;DHT22;8928;51.678;6.074;2024-01-11T03:06:04;-7.10;1.00
17619;DHT22;8928;51.678;6.074;2024-01-11T03:08:51;-7.20;1.00
17619;DHT22;8928;51.678;6.074;2024-01-11T03:11:38;-7.20;1.00
17619;DHT22;8928;51.678;6.074;2024-01-11T03:14:27;-7.20;1.00
17619;DHT22;8928;51.678;6.074;2024-01-11T03:17:14;-7.20;1.00
17619;DHT22;8928;51.678;6.074;2024-01-11T03:20:02;-7.30;1.00
17619;DHT22;8928;51.678;6.074;2024-01-11T03:22:50;-7.40;1.00
17619;DHT22;8928;51.678;6.074;2024-01-11T03:25:38;-7.60;1.00
17619;DHT22;8928;51.678;6.074;2024-01-11T03:28:25;-7.70;1.00
17619;DHT22;8928;51.678;6.074;2024-01-11T03:31:13;-7.70;1.00
17619;DHT22;8928;51.678;6.074;2024-01-11T03:34:00;-7.80;1.00
17619;DHT22;8928;51.678;6.074;2024-01-11T03:36:47;-7.80;1.00
17619;DHT22;8928;51.678;6.074;2024-01-11T03:39:34;-7.90;1.00
17619;DHT22;8928;51.678;6.074;2024-01-11T03:42:21;-7.90;1.00
17619;DHT22;8928;51.678;6.074;2024-01-11T03:45:09;-8.00;1.00
17619;DHT22;8928;51.678;6.074;2024-01-11T03:47:58;-8.00;1.00
17619;DHT22;8928;51.678;6.074;2024-01-11T03:50:45;-8.10;1.00
17619;DHT22;8928;51.678;6.074;2024-01-11T03:53:34;-8.00;1.00
17619;DHT22;8928;51.678;6.074;2024-01-11T03:56:22;-8.10;1.00
17619;DHT22;8928;51.678;6.074;2024-01-11T03:59:10;-8.00;1.00
17619;DHT22;8928;51.678;6.074;2024-01-11T04:01:58;-8.00;1.00
17619;DHT22;8928;51.678;6.074;2024-01-11T04:04:46;-8.00;1.00
17619;DHT22;8928;51.678;6.074;2024-01-11T04:07:33;-8.00;1.00
17619;DHT22;8928;51.678;6.074;2024-01-11T04:10:20;-7.80;1.00
17619;DHT22;8928;51.678;6.074;2024-01-11T04:13:07;-7.80;1.00
17619;DHT22;8928;51.678;6.074;2024-01-11T04:15:54;-7.80;1.00
17619;DHT22;8928;51.678;6.074;2024-01-11T04:18:41;-7.80;1.00
17619;DHT22;8928;51.678;6.074;2024-01-11T04:21:30;-7.90;1.00
17619;DHT22;8928;51.678;6.074;2024-01-11T04:24:17;-7.80;1.00
17619;DHT22;8928;51.678;6.074;2024-01-11T04:27:04;-7.90;1.00
17619;DHT22;8928;51.678;6.074;2024-01-11T04:29:51;-7.90;1.00
17619;DHT22;8928;51.678;6.074;2024-01-11T04:32:38;-7.90;1.00
17619;DHT22;8928;51.678;6.074;2024-01-11T04:35:25;-8.00;1.00
17619;DHT22;8928;51.678;6.074;2024-01-11T04:38:14;-8.10;1.00
17619;DHT22;8928;51.678;6.074;2024-01-11T04:41:01;-8.10;1.00
17619;DHT22;8928;51.678;6.074;2024-01-11T04:43:48;-8.10;1.00
17619;DHT22;8928;51.678;6.074;2024-01-11T04:46:35;-8.00;1.00
17619;DHT22;8928;51.678;6.074;2024-01-11T04:49:22;-8.00;1.00
17619;DHT22;8928;51.678;6.074;2024-01-11T04:52:09;-7.90;1.00
17619;DHT22;8928;51.678;6.074;2024-01-11T04:54:58;-7.90;1.00
17619;DHT22;8928;51.678;6.074;2024-01-11T04:57:45;-7.70;1.00
17619;DHT22;8928;51.678;6.074;2024-01-11T05:00:32;-7.80;1.00
17619;DHT22;8928;51.678;6.074;2024-01-11T05:03:19;-7.80;1.00
17619;DHT22;8928;51.678;6.074;2024-01-11T05:06:06;-7.80;1.00
17619;DHT22;8928;51.678;6.074;2024-01-11T05:08:53;-7.70;1.00
17619;DHT22;8928;51.678;6.074;2024-01-11T05:11:41;-7.70;1.00
17619;DHT22;8928;51.678;6.074;2024-01-11T05:14:28;-7.80;1.00
17619;DHT22;8928;51.678;6.074;2024-01-11T05:17:15;-7.80;1.00
17619;DHT22;8928;51.678;6.074;2024-01-11T05:20:03;-7.60;1.00
17619;DHT22;8928;51.678;6.074;2024-01-11T05:22:51;-7.60;1.00
17619;DHT22;8928;51.678;6.074;2024-01-11T05:25:38;-7.60;1.00
17619;DHT22;8928;51.678;6.074;2024-01-11T05:28:26;-7.60;1.00
17619;DHT22;8928;51.678;6.074;2024-01-11T05:31:14;-7.60;1.00
17619;DHT22;8928;51.678;6.074;2024-01-11T05:34:02;-7.60;1.00
17619;DHT22;8928;51.678;6.074;2024-01-11T05:36:49;-7.60;1.00
17619;DHT22;8928;51.678;6.074;2024-01-11T05:39:36;-7.60;1.00
17619;DHT22;8928;51.678;6.074;2024-01-11T05:42:23;-7.70;1.00
17619;DHT22;8928;51.678;6.074;2024-01-11T05:45:12;-7.70;1.00
17619;DHT22;8928;51.678;6.074;2024-01-11T05:48:03;-7.70;1.00
17619;DHT22;8928;51.678;6.074;2024-01-11T05:50:51;-7.60;1.00
17619;DHT22;8928;51.678;6.074;2024-01-11T05:53:38;-7.60;1.00
17619;DHT22;8928;51.678;6.074;2024-01-11T05:56:25;-7.60;1.00
17619;DHT22;8928;51.678;6.074;2024-01-11T05:59:12;-7.70;1.00
17619;DHT22;8928;51.678;6.074;2024-01-11T06:02:01;-7.70;1.00
17619;DHT22;8928;51.678;6.074;2024-01-11T06:04:48;-7.80;1.00
17619;DHT22;8928;51.678;6.074;2024-01-11T06:07:35;-7.90;1.00
17619;DHT22;8928;51.678;6.074;2024-01-11T06:10:22;-7.90;1.00
17619;DHT22;8928;51.678;6.074;2024-01-11T06:13:09;-8.00;1.00
17619;DHT22;8928;51.678;6.074;2024-01-11T06:15:56;-8.00;1.00
17619;DHT22;8928;51.678;6.074;2024-01-11T06:18:44;-8.10;1.00
17619;DHT22;8928;51.678;6.074;2024-01-11T06:21:31;-8.10;1.00
17619;DHT22;8928;51.678;6.074;2024-01-11T06:24:19;-8.20;1.00
17619;DHT22;8928;51.678;6.074;2024-01-11T06:27:06;-8.30;1.00
17619;DHT22;8928;51.678;6.074;2024-01-11T06:29:53;-8.40;1.00
17619;DHT22;8928;51.678;6.074;2024-01-11T06:32:40;-8.40;1.00
17619;DHT22;8928;51.678;6.074;2024-01-11T06:35:28;-8.60;1.00
17619;DHT22;8928;51.678;6.074;2024-01-11T06:38:16;-8.60;1.00
17619;DHT22;8928;51.678;6.074;2024-01-11T06:41:03;-8.70;1.00
17619;DHT22;8928;51.678;6.074;2024-01-11T06:43:51;-8.70;1.00
17619;DHT22;8928;51.678;6.074;2024-01-11T06:46:38;-8.60;1.00
17619;DHT22;8928;51.678;6.074;2024-01-11T06:49:27;-8.70;1.00
17619;DHT22;8928;51.678;6.074;2024-01-11T06:52:15;-8.70;1.00
17619;DHT22;8928;51.678;6.074;2024-01-11T06:55:03;-8.60;1.00
17619;DHT22;8928;51.678;6.074;2024-01-11T06:57:50;-8.60;1.00
17619;DHT22;8928;51.678;6.074;2024-01-11T07:00:37;-8.50;1.00
17619;DHT22;8928;51.678;6.074;2024-01-11T07:03:28;-8.40;1.00
17619;DHT22;8928;51.678;6.074;2024-01-11T07:06:15;-8.40;1.00
17619;DHT22;8928;51.678;6.074;2024-01-11T07:09:04;-8.50;1.00
17619;DHT22;8928;51.678;6.074;2024-01-11T07:11:51;-8.50;1.00
17619;DHT22;8928;51.678;6.074;2024-01-11T07:14:38;-8.40;1.00
17619;DHT22;8928;51.678;6.074;2024-01-11T07:17:25;-8.40;1.00
17619;DHT22;8928;51.678;6.074;2024-01-11T07:20:12;-8.40;1.00
17619;DHT22;8928;51.678;6.074;2024-01-11T07:23:02;-8.40;1.00
17619;DHT22;8928;51.678;6.074;2024-01-11T07:25:50;-8.40;1.00
17619;DHT22;8928;51.678;6.074;2024-01-11T07:28:37;-8.40;1.00
17619;DHT22;8928;51.678;6.074;2024-01-11T07:31:25;-8.20;1.00
17619;DHT22;8928;51.678;6.074;2024-01-11T07:34:12;-8.20;1.00
17619;DHT22;8928;51.678;6.074;2024-01-11T07:36:59;-8.20;1.00
17619;DHT22;8928;51.678;6.074;2024-01-11T07:39:46;-8.20;1.00
17619;DHT22;8928;51.678;6.074;2024-01-11T07:42:35;-8.20;1.00
17619;DHT22;8928;51.678;6.074;2024-01-11T07:45:22;-8.20;1.00
17619;DHT22;8928;51.678;6.074;2024-01-11T07:48:09;-8.30;1.00
17619;DHT22;8928;51.678;6.074;2024-01-11T07:50:56;-8.20;1.00
17619;DHT22;8928;51.678;6.074;2024-01-11T07:53:43;-8.30;1.00
17619;DHT22;8928;51.678;6.074;2024-01-11T07:56:30;-8.40;1.00
17619;DHT22;8928;51.678;6.074;2024-01-11T07:59:19;-8.30;1.00
17619;DHT22;8928;51.678;6.074;2024-01-11T08:02:06;-8.20;1.00
17619;DHT22;8928;51.678;6.074;2024-01-11T08:04:53;-8.30;1.00
17619;DHT22;8928;51.678;6.074;2024-01-11T08:07:40;-8.30;1.00
17619;DHT22;8928;51.678;6.074;2024-01-11T08:10:27;-8.30;1.00
17619;DHT22;8928;51.678;6.074;2024-01-11T08:13:16;-8.30;1.00
17619;DHT22;8928;51.678;6.074;2024-01-11T08:16:05;-8.40;1.00
17619;DHT22;8928;51.678;6.074;2024-01-11T08:18:55;-8.30;1.00
17619;DHT22;8928;51.678;6.074;2024-01-11T08:21:42;-8.40;1.00
17619;DHT22;8928;51.678;6.074;2024-01-11T08:24:29;-8.30;1.00
17619;DHT22;8928;51.678;6.074;2024-01-11T08:27:16;-8.30;1.00
17619;DHT22;8928;51.678;6.074;2024-01-11T08:30:04;-8.20;1.00
17619;DHT22;8928;51.678;6.074;2024-01-11T08:32:53;-8.10;1.00
17619;DHT22;8928;51.678;6.074;2024-01-11T08:35:41;-8.00;1.00
17619;DHT22;8928;51.678;6.074;2024-01-11T08:38:28;-7.80;1.00
17619;DHT22;8928;51.678;6.074;2024-01-11T08:41:15;-7.60;1.00
17619;DHT22;8928;51.678;6.074;2024-01-11T08:44:02;-7.50;1.00
17619;DHT22;8928;51.678;6.074;2024-01-11T08:46:51;-7.50;1.00
17619;DHT22;8928;51.678;6.074;2024-01-11T08:49:39;-7.50;1.00
17619;DHT22;8928;51.678;6.074;2024-01-11T08:52:26;-7.40;1.00
17619;DHT22;8928;51.678;6.074;2024-01-11T08:55:13;-7.30;1.00
17619;DHT22;8928;51.678;6.074;2024-01-11T08:58:00;-7.20;1.00
17619;DHT22;8928;51.678;6.074;2024-01-11T09:00:48;-7.10;1.00
17619;DHT22;8928;51.678;6.074;2024-01-11T09:03:35;-7.00;1.00
17619;DHT22;8928;51.678;6.074;2024-01-11T09:06:23;-6.90;1.00
17619;DHT22;8928;51.678;6.074;2024-01-11T09:09:10;-6.80;1.00
17619;DHT22;8928;51.678;6.074;2024-01-11T09:11:59;-6.70;1.00
17619;DHT22;8928;51.678;6.074;2024-01-11T09:14:46;-6.50;1.00
17619;DHT22;8928;51.678;6.074;2024-01-11T09:17:33;-6.30;1.00
17619;DHT22;8928;51.678;6.074;2024-01-11T09:20:20;-6.10;1.00
17619;DHT22;8928;51.678;6.074;2024-01-11T09:23:09;-6.00;1.00
17619;DHT22;8928;51.678;6.074;2024-01-11T09:25:56;-5.90;1.00
17619;DHT22;8928;51.678;6.074;2024-01-11T09:28:43;-5.80;1.00
17619;DHT22;8928;51.678;6.074;2024-01-11T09:31:31;-5.70;1.00
17619;DHT22;8928;51.678;6.074;2024-01-11T09:34:18;-5.60;1.00
17619;DHT22;8928;51.678;6.074;2024-01-11T09:37:05;-5.60;1.00
17619;DHT22;8928;51.678;6.074;2024-01-11T09:39:54;-5.50;1.00
17619;DHT22;8928;51.678;6.074;2024-01-11T09:42:41;-5.40;1.00
17619;DHT22;8928;51.678;6.074;2024-01-11T09:45:28;-5.40;1.00
17619;DHT22;8928;51.678;6.074;2024-01-11T09:48:15;-5.30;1.00
17619;DHT22;8928;51.678;6.074;2024-01-11T09:51:04;-5.20;1.00
17619;DHT22;8928;51.678;6.074;2024-01-11T09:53:51;-5.20;1.00
17619;DHT22;8928;51.678;6.074;2024-01-11T09:56:43;-5.10;1.00
17619;DHT22;8928;51.678;6.074;2024-01-11T09:59:30;-5.00;1.00
17619;DHT22;8928;51.678;6.074;2024-01-11T10:02:18;-4.90;1.00
17619;DHT22;8928;51.678;6.074;2024-01-11T10:05:06;-4.80;1.00
17619;DHT22;8928;51.678;6.074;2024-01-11T10:07:53;-4.60;1.00
17619;DHT22;8928;51.678;6.074;2024-01-11T10:10:40;-4.50;1.00
17619;DHT22;8928;51.678;6.074;2024-01-11T10:13:30;-4.40;1.00
17619;DHT22;8928;51.678;6.074;2024-01-11T10:16:18;-4.20;1.00
17619;DHT22;8928;51.678;6.074;2024-01-11T10:19:05;-4.10;1.00
17619;DHT22;8928;51.678;6.074;2024-01-11T10:21:52;-3.90;1.00
17619;DHT22;8928;51.678;6.074;2024-01-11T10:24:39;-3.80;1.00
17619;DHT22;8928;51.678;6.074;2024-01-11T10:27:27;-3.70;1.00
17619;DHT22;8928;51.678;6.074;2024-01-11T10:30:16;-3.50;1.00
17619;DHT22;8928;51.678;6.074;2024-01-11T10:33:03;-3.40;1.00
17619;DHT22;8928;51.678;6.074;2024-01-11T10:35:51;-3.20;1.00
17619;DHT22;8928;51.678;6.074;2024-01-11T10:38:39;-3.00;1.00
17619;DHT22;8928;51.678;6.074;2024-01-11T10:41:27;-2.80;1.00
17619;DHT22;8928;51.678;6.074;2024-01-11T10:44:18;-2.70;1.00
17619;DHT22;8928;51.678;6.074;2024-01-11T10:47:09;-2.60;1.00
17619;DHT22;8928;51.678;6.074;2024-01-11T10:49:57;-2.50;1.00
17619;DHT22;8928;51.678;6.074;2024-01-11T10:53:02;-2.30;1.00
17619;DHT22;8928;51.678;6.074;2024-01-11T10:55:50;-2.20;1.00
17619;DHT22;8928;51.678;6.074;2024-01-11T10:58:38;-2.10;1.00
17619;DHT22;8928;51.678;6.074;2024-01-11T11:01:26;-2.00;1.00
17619;DHT22;8928;51.678;6.074;2024-01-11T11:04:15;-1.90;1.00
17619;DHT22;8928;51.678;6.074;2024-01-11T11:07:03;-1.80;1.00
17619;DHT22;8928;51.678;6.074;2024-01-11T11:09:53;-1.70;1.00
17619;DHT22;8928;51.678;6.074;2024-01-11T11:12:42;-1.60;1.00
17619;DHT22;8928;51.678;6.074;2024-01-11T11:15:32;-1.60;1.00
17619;DHT22;8928;51.678;6.074;2024-01-11T11:18:20;-1.50;1.00
17619;DHT22;8928;51.678;6.074;2024-01-11T11:21:10;-1.40;1.00
17619;DHT22;8928;51.678;6.074;2024-01-11T11:23:58;-1.40;1.00
17619;DHT22;8928;51.678;6.074;2024-01-11T11:26:45;-1.30;1.00
17619;DHT22;8928;51.678;6.074;2024-01-11T11:29:32;-1.10;1.00
17619;DHT22;8928;51.678;6.074;2024-01-11T11:32:34;-1.10;1.00
17619;DHT22;8928;51.678;6.074;2024-01-11T11:35:23;-1.10;1.00
17619;DHT22;8928;51.678;6.074;2024-01-11T11:38:18;-1.10;1.00
17619;DHT22;8928;51.678;6.074;2024-01-11T11:41:07;-1.10;1.00
17619;DHT22;8928;51.678;6.074;2024-01-11T11:43:54;-1.10;1.00
17619;DHT22;8928;51.678;6.074;2024-01-11T11:46:41;-1.10;1.00
17619;DHT22;8928;51.678;6.074;2024-01-11T11:49:52;-1.00;1.00
17619;DHT22;8928;51.678;6.074;2024-01-11T11:52:44;-1.10;1.00
17619;DHT22;8928;51.678;6.074;2024-01-11T11:55:34;-1.10;1.00
17619;DHT22;8928;51.678;6.074;2024-01-11T11:58:22;-1.00;1.00
17619;DHT22;8928;51.678;6.074;2024-01-11T12:01:09;-0.90;1.00
17619;DHT22;8928;51.678;6.074;2024-01-11T12:03:57;-0.80;1.00
17619;DHT22;8928;51.678;6.074;2024-01-11T12:06:44;-0.70;1.00
17619;DHT22;8928;51.678;6.074;2024-01-11T12:09:31;-0.60;1.00
17619;DHT22;8928;51.678;6.074;2024-01-11T12:12:20;-0.60;1.00
17619;DHT22;8928;51.678;6.074;2024-01-11T12:15:08;-0.60;1.00
17619;DHT22;8928;51.678;6.074;2024-01-11T12:17:57;-0.60;1.00
17619;DHT22;8928;51.678;6.074;2024-01-11T12:20:45;-0.70;1.00
17619;DHT22;8928;51.678;6.074;2024-01-11T12:23:33;-0.80;1.00
17619;DHT22;8928;51.678;6.074;2024-01-11T12:26:21;-0.80;1.00
17619;DHT22;8928;51.678;6.074;2024-01-11T12:29:10;-1.00;1.00
17619;DHT22;8928;51.678;6.074;2024-01-11T12:31:57;-1.00;1.00
17619;DHT22;8928;51.678;6.074;2024-01-11T12:34:45;-1.00;1.00
17619;DHT22;8928;51.678;6.074;2024-01-11T12:37:33;-1.10;1.00
17619;DHT22;8928;51.678;6.074;2024-01-11T12:40:20;-1.00;1.00
17619;DHT22;8928;51.678;6.074;2024-01-11T12:43:07;-1.00;1.00
17619;DHT22;8928;51.678;6.074;2024-01-11T12:45:56;-1.00;1.00
17619;DHT22;8928;51.678;6.074;2024-01-11T12:48:43;-0.90;1.00
17619;DHT22;8928;51.678;6.074;2024-01-11T12:51:30;-0.90;1.00
17619;DHT22;8928;51.678;6.074;2024-01-11T12:54:17;-0.80;1.00
17619;DHT22;8928;51.678;6.074;2024-01-11T12:57:05;-0.80;1.00
17619;DHT22;8928;51.678;6.074;2024-01-11T12:59:53;-0.80;1.00
17619;DHT22;8928;51.678;6.074;2024-01-11T13:02:41;-0.80;1.00
17619;DHT22;8928;51.678;6.074;2024-01-11T13:05:30;-0.80;1.00
17619;DHT22;8928;51.678;6.074;2024-01-11T13:08:21;-0.70;1.00
17619;DHT22;8928;51.678;6.074;2024-01-11T13:11:08;-0.70;1.00
17619;DHT22;8928;51.678;6.074;2024-01-11T13:13:56;-0.30;1.00
17619;DHT22;8928;51.678;6.074;2024-01-11T13:16:46;0.20;1.00
17619;DHT22;8928;51.678;6.074;2024-01-11T13:19:35;0.10;1.00
17619;DHT22;8928;51.678;6.074;2024-01-11T13:22:24;0.10;1.00
17619;DHT22;8928;51.678;6.074;2024-01-11T13:25:12;0.00;1.00
17619;DHT22;8928;51.678;6.074;2024-01-11T13:27:59;-0.10;1.00
17619;DHT22;8928;51.678;6.074;2024-01-11T13:30:46;-0.10;1.00
17619;DHT22;8928;51.678;6.074;2024-01-11T13:33:34;-0.20;1.00
17619;DHT22;8928;51.678;6.074;2024-01-11T13:36:23;-0.30;1.00
17619;DHT22;8928;51.678;6.074;2024-01-11T13:39:10;-0.30;1.00
17619;DHT22;8928;51.678;6.074;2024-01-11T13:41:57;-0.30;1.00
17619;DHT22;8928;51.678;6.074;2024-01-11T13:44:44;-0.40;1.00
17619;DHT22;8928;51.678;6.074;2024-01-11T13:47:31;-0.40;1.00
17619;DHT22;8928;51.678;6.074;2024-01-11T13:50:18;-0.40;1.00
17619;DHT22;8928;51.678;6.074;2024-01-11T13:53:06;-0.40;1.00
17619;DHT22;8928;51.678;6.074;2024-01-11T13:55:53;-0.40;1.00
17619;DHT22;8928;51.678;6.074;2024-01-11T13:58:41;-0.50;1.00
17619;DHT22;8928;51.678;6.074;2024-01-11T14:01:30;-0.40;1.00
17619;DHT22;8928;51.678;6.074;2024-01-11T14:04:17;-0.40;1.00
17619;DHT22;8928;51.678;6.074;2024-01-11T14:07:08;-0.40;1.00
17619;DHT22;8928;51.678;6.074;2024-01-11T14:09:57;-0.40;1.00
17619;DHT22;8928;51.678;6.074;2024-01-11T14:12:44;-0.30;1.00
17619;DHT22;8928;51.678;6.074;2024-01-11T14:15:31;-0.40;1.00
17619;DHT22;8928;51.678;6.074;2024-01-11T14:18:18;-0.40;1.00
17619;DHT22;8928;51.678;6.074;2024-01-11T14:21:05;-0.40;1.00
17619;DHT22;8928;51.678;6.074;2024-01-11T14:23:52;-0.50;1.00
17619;DHT22;8928;51.678;6.074;2024-01-11T14:26:40;-0.50;1.00
17619;DHT22;8928;51.678;6.074;2024-01-11T14:29:29;-0.50;1.00
17619;DHT22;8928;51.678;6.074;2024-01-11T14:32:16;-0.60;1.00
17619;DHT22;8928;51.678;6.074;2024-01-11T14:35:05;-0.50;1.00
17619;DHT22;8928;51.678;6.074;2024-01-11T14:37:53;-0.60;1.00
17619;DHT22;8928;51.678;6.074;2024-01-11T14:40:40;-0.70;1.00
17619;DHT22;8928;51.678;6.074;2024-01-11T14:43:29;-0.70;1.00
17619;DHT22;8928;51.678;6.074;2024-01-11T14:46:16;-0.70;1.00
17619;DHT22;8928;51.678;6.074;2024-01-11T14:49:03;-0.70;1.00
17619;DHT22;8928;51.678;6.074;2024-01-11T14:51:53;-0.80;1.00
17619;DHT22;8928;51.678;6.074;2024-01-11T14:54:40;-0.90;1.00
17619;DHT22;8928;51.678;6.074;2024-01-11T14:57:27;-0.90;1.00
17619;DHT22;8928;51.678;6.074;2024-01-11T15:00:16;-0.90;1.00
17619;DHT22;8928;51.678;6.074;2024-01-11T15:03:04;-1.00;1.00
17619;DHT22;8928;51.678;6.074;2024-01-11T15:05:52;-1.10;1.00
17619;DHT22;8928;51.678;6.074;2024-01-11T15:08:39;-1.00;1.00
17619;DHT22;8928;51.678;6.074;2024-01-11T15:11:26;-1.00;1.00
17619;DHT22;8928;51.678;6.074;2024-01-11T15:14:14;-1.00;1.00
17619;DHT22;8928;51.678;6.074;2024-01-11T15:17:02;-1.00;1.00
17619;DHT22;8928;51.678;6.074;2024-01-11T15:19:49;-1.00;1.00
17619;DHT22;8928;51.678;6.074;2024-01-11T15:22:36;-1.00;1.00
17619;DHT22;8928;51.678;6.074;2024-01-11T15:25:23;-1.00;1.00
17619;DHT22;8928;51.678;6.074;2024-01-11T15:28:12;-1.00;1.00
17619;DHT22;8928;51.678;6.074;2024-01-11T15:30:59;-0.90;1.00
17619;DHT22;8928;51.678;6.074;2024-01-11T15:33:47;-0.90;1.00
17619;DHT22;8928;51.678;6.074;2024-01-11T15:36:34;-0.90;1.00
17619;DHT22;8928;51.678;6.074;2024-01-11T15:39:22;-0.90;1.00
17619;DHT22;8928;51.678;6.074;2024-01-11T15:42:09;-0.90;1.00
17619;DHT22;8928;51.678;6.074;2024-01-11T15:44:56;-0.90;1.00
17619;DHT22;8928;51.678;6.074;2024-01-11T15:47:43;-0.90;1.00
17619;DHT22;8928;51.678;6.074;2024-01-11T15:50:32;-0.90;1.00
17619;DHT22;8928;51.678;6.074;2024-01-11T15:53:19;-1.00;1.00
17619;DHT22;8928;51.678;6.074;2024-01-11T15:56:06;-1.00;1.00
17619;DHT22;8928;51.678;6.074;2024-01-11T15:58:53;-1.00;1.00
17619;DHT22;8928;51.678;6.074;2024-01-11T16:01:40;-1.00;1.00
17619;DHT22;8928;51.678;6.074;2024-01-11T16:04:27;-1.00;1.00
17619;DHT22;8928;51.678;6.074;2024-01-11T16:07:15;-1.00;1.00
17619;DHT22;8928;51.678;6.074;2024-01-11T16:10:03;-1.00;1.00
17619;DHT22;8928;51.678;6.074;2024-01-11T16:12:51;-1.00;1.00
17619;DHT22;8928;51.678;6.074;2024-01-11T16:15:38;-1.00;1.00
17619;DHT22;8928;51.678;6.074;2024-01-11T16:18:25;-1.00;1.00
17619;DHT22;8928;51.678;6.074;2024-01-11T16:21:12;-1.00;1.00
17619;DHT22;8928;51.678;6.074;2024-01-11T16:24:01;-1.00;1.00
17619;DHT22;8928;51.678;6.074;2024-01-11T16:26:48;-1.00;1.00
17619;DHT22;8928;51.678;6.074;2024-01-11T16:29:35;-1.00;1.00
17619;DHT22;8928;51.678;6.074;2024-01-11T16:32:23;-1.00;1.00
17619;DHT22;8928;51.678;6.074;2024-01-11T16:35:10;-1.00;1.00
17619;DHT22;8928;51.678;6.074;2024-01-11T16:37:57;-1.00;1.00
17619;DHT22;8928;51.678;6.074;2024-01-11T16:40:45;-1.00;1.00
17619;DHT22;8928;51.678;6.074;2024-01-11T16:43:32;-1.00;1.00
17619;DHT22;8928;51.678;6.074;2024-01-11T16:46:20;-1.00;1.00
17619;DHT22;8928;51.678;6.074;2024-01-11T16:49:07;-0.90;1.00
17619;DHT22;8928;51.678;6.074;2024-01-11T16:51:55;-1.00;1.00
17619;DHT22;8928;51.678;6.074;2024-01-11T16:54:44;-1.00;1.00
17619;DHT22;8928;51.678;6.074;2024-01-11T16:57:33;-1.00;1.00
17619;DHT22;8928;51.678;6.074;2024-01-11T17:00:20;-1.00;1.00
17619;DHT22;8928;51.678;6.074;2024-01-11T17:03:08;-1.00;1.00
17619;DHT22;8928;51.678;6.074;2024-01-11T17:05:55;-1.00;1.00
17619;DHT22;8928;51.678;6.074;2024-01-11T17:08:42;-1.00;1.00
17619;DHT22;8928;51.678;6.074;2024-01-11T17:11:29;-1.00;1.00
17619;DHT22;8928;51.678;6.074;2024-01-11T17:14:18;-1.00;1.00
17619;DHT22;8928;51.678;6.074;2024-01-11T17:17:05;-1.10;1.00
17619;DHT22;8928;51.678;6.074;2024-01-11T17:19:54;-1.00;1.00
17619;DHT22;8928;51.678;6.074;2024-01-11T17:22:41;-1.00;1.00
17619;DHT22;8928;51.678;6.074;2024-01-11T17:25:28;-1.00;1.00
17619;DHT22;8928;51.678;6.074;2024-01-11T17:28:16;-1.00;1.00
17619;DHT22;8928;51.678;6.074;2024-01-11T17:31:04;-1.00;1.00
17619;DHT22;8928;51.678;6.074;2024-01-11T17:33:51;-0.90;1.00
17619;DHT22;8928;51.678;6.074;2024-01-11T17:36:38;-0.90;1.00
17619;DHT22;8928;51.678;6.074;2024-01-11T17:39:26;-0.90;1.00
17619;DHT22;8928;51.678;6.074;2024-01-11T17:42:14;-0.90;1.00
17619;DHT22;8928;51.678;6.074;2024-01-11T17:45:02;-0.90;1.00
17619;DHT22;8928;51.678;6.074;2024-01-11T17:47:51;-0.90;1.00
17619;DHT22;8928;51.678;6.074;2024-01-11T17:50:38;-0.90;1.00
17619;DHT22;8928;51.678;6.074;2024-01-11T17:53:26;-0.90;1.00
17619;DHT22;8928;51.678;6.074;2024-01-11T17:56:13;-0.90;1.00
17619;DHT22;8928;51.678;6.074;2024-01-11T17:59:02;-0.90;1.00
17619;DHT22;8928;51.678;6.074;2024-01-11T18:01:51;-0.90;1.00
17619;DHT22;8928;51.678;6.074;2024-01-11T18:04:40;-0.90;1.00
17619;DHT22;8928;51.678;6.074;2024-01-11T18:07:27;-0.90;1.00
17619;DHT22;8928;51.678;6.074;2024-01-11T18:10:15;-0.90;1.00
17619;DHT22;8928;51.678;6.074;2024-01-11T18:13:03;-0.90;1.00
17619;DHT22;8928;51.678;6.074;2024-01-11T18:15:50;-0.80;1.00